Time;durP1;ratioP1;P1;durP2;ratioP2;P2;SDS_P1;SDS_P2;PMS_P1;PMS_P2;Temp;Humidity;BMP_temperature;BMP_pressure;BME280_temperature;BME280_humidity;BME280_pressure;Samples;Min_cycle;Max_cycle;Signal;HPM_P1;HPM_P2
2021/03/13 00:01:05;;;;;;;13.10;12.00;;;7.60;99.90;;;;;;5103787;27;20520;-73
2021/03/13 00:03:31;;;;;;;13.17;12.23;;;7.70;99.90;;;;;;5102728;27;21082;-73
2021/03/13 00:05:58;;;;;;;13.47;12.60;;;7.60;99.90;;;;;;5102706;27;21038;-73
2021/03/13 00:08:25;;;;;;;16.00;15.10;;;7.60;99.90;;;;;;5104908;27;20464;-73
2021/03/13 00:10:52;;;;;;;19.63;18.43;;;7.40;99.90;;;;;;5108839;27;20979;-73
2021/03/13 00:13:19;;;;;;;21.97;20.37;;;7.10;99.90;;;;;;5105251;27;20630;-75
2021/03/13 00:15:46;;;;;;;19.30;18.00;;;6.90;99.90;;;;;;5105631;27;20535;-74
2021/03/13 00:18:13;;;;;;;18.63;17.43;;;6.70;99.90;;;;;;5102267;27;20831;-74
2021/03/13 00:20:41;;;;;;;18.27;17.20;;;6.60;99.90;;;;;;5104663;27;20487;-75
2021/03/13 00:23:08;;;;;;;18.50;17.23;;;6.50;99.90;;;;;;5101729;27;20931;-74
2021/03/13 00:25:36;;;;;;;19.50;17.97;;;6.50;99.90;;;;;;5105746;27;20461;-75
2021/03/13 00:28:03;;;;;;;19.00;17.70;;;6.40;99.90;;;;;;5108089;27;20811;-75
2021/03/13 00:30:33;;;;;;;18.63;16.93;;;6.30;99.90;;;;;;5106172;27;20467;-74
2021/03/13 00:33:02;;;;;;;17.37;16.17;;;6.30;99.90;;;;;;5101954;27;20490;-75
2021/03/13 00:35:30;;;;;;;18.10;17.00;;;6.40;99.90;;;;;;5101743;27;20882;-74
2021/03/13 00:37:58;;;;;;;17.87;16.47;;;6.40;99.90;;;;;;5104266;27;20489;-75
2021/03/13 00:40:26;;;;;;;18.17;16.40;;;6.40;99.90;;;;;;5103081;27;20567;-74
2021/03/13 00:42:53;;;;;;;17.23;16.23;;;6.40;99.90;;;;;;5106213;27;20984;-75
2021/03/13 00:45:23;;;;;;;18.07;16.57;;;6.40;99.90;;;;;;5102751;27;20493;-75
2021/03/13 00:47:51;;;;;;;17.77;16.47;;;6.40;99.90;;;;;;5104153;27;20457;-74
2021/03/13 00:50:19;;;;;;;17.30;15.90;;;6.40;99.90;;;;;;5101944;27;20525;-74
2021/03/13 00:52:47;;;;;;;17.90;16.67;;;6.30;99.90;;;;;;5099406;27;20465;-74
2021/03/13 00:55:14;;;;;;;19.80;18.20;;;6.40;99.90;;;;;;5102144;27;20453;-74
2021/03/13 00:57:42;;;;;;;18.60;17.43;;;6.40;99.90;;;;;;5106608;27;20548;-75
2021/03/13 01:00:10;;;;;;;20.17;18.10;;;6.40;99.90;;;;;;5106922;27;20808;-76
2021/03/13 01:02:38;;;;;;;19.17;17.80;;;6.40;99.90;;;;;;5104267;27;20517;-75
2021/03/13 01:05:08;;;;;;;20.10;18.20;;;6.40;99.90;;;;;;5103546;27;20699;-76
2021/03/13 01:07:35;;;;;;;19.07;17.87;;;6.40;99.90;;;;;;5104268;27;20485;-75
2021/03/13 01:10:07;;;;;;;18.87;17.47;;;6.40;99.90;;;;;;5104285;27;20470;-75
2021/03/13 01:12:34;;;;;;;18.00;16.80;;;6.40;99.90;;;;;;5103416;27;20875;-76
2021/03/13 01:15:00;;;;;;;16.73;15.93;;;6.50;99.90;;;;;;5105998;27;20591;-76
2021/03/13 01:17:26;;;;;;;15.20;14.50;;;6.40;99.90;;;;;;5106443;27;21196;-76
2021/03/13 01:19:53;;;;;;;16.30;15.60;;;6.40;99.90;;;;;;5106988;27;21016;-76
2021/03/13 01:22:20;;;;;;;16.27;15.57;;;6.40;99.90;;;;;;5104069;27;20468;-75
2021/03/13 01:27:54;;;;;;;16.50;15.70;;;6.40;99.90;;;;;;5101976;27;20942;-75
2021/03/13 01:30:22;;;;;;;14.93;14.23;;;6.40;99.90;;;;;;5104299;27;20461;-76
2021/03/13 01:32:49;;;;;;;15.90;15.20;;;6.40;99.90;;;;;;5100715;27;20489;-76
2021/03/13 01:35:16;;;;;;;14.87;14.23;;;6.30;99.90;;;;;;5102155;27;21275;-76
2021/03/13 01:37:43;;;;;;;15.40;14.70;;;6.30;99.90;;;;;;5103697;28;21031;-77
2021/03/13 01:40:14;;;;;;;14.90;14.30;;;6.20;99.90;;;;;;5099815;27;20484;-76
2021/03/13 01:42:41;;;;;;;13.90;13.30;;;6.20;99.90;;;;;;5102983;27;20464;-75
2021/03/13 01:45:10;;;;;;;14.10;13.50;;;6.20;99.90;;;;;;5105939;27;20528;-77
2021/03/13 01:47:38;;;;;;;15.07;14.37;;;6.20;99.90;;;;;;5105285;27;20538;-77
2021/03/13 01:50:06;;;;;;;14.73;14.13;;;6.20;99.90;;;;;;5097431;27;20513;-76
2021/03/13 01:52:33;;;;;;;14.10;13.50;;;6.10;99.90;;;;;;5104462;27;20514;-77
2021/03/13 01:55:00;;;;;;;15.23;14.53;;;6.10;99.90;;;;;;5107470;28;21029;-76
2021/03/13 01:57:27;;;;;;;13.90;13.30;;;6.10;99.90;;;;;;5101890;27;20457;-78
2021/03/13 01:59:54;;;;;;;14.13;13.53;;;6.20;99.90;;;;;;5101982;28;20756;-76
2021/03/13 02:02:20;;;;;;;14.90;14.30;;;6.10;99.90;;;;;;5100658;27;20479;-79
2021/03/13 02:04:47;;;;;;;13.80;13.20;;;6.10;99.90;;;;;;5103344;28;20459;-77
2021/03/13 02:07:22;;;;;;;14.77;14.17;;;6.10;99.90;;;;;;5105859;28;21002;-78
2021/03/13 02:10:01;;;;;;;15.30;14.60;;;6.10;99.90;;;;;;5102505;28;20461;-77
2021/03/13 02:12:40;;;;;;;14.23;13.63;;;6.10;99.90;;;;;;5104196;28;20464;-77
2021/03/13 02:15:12;;;;;;;13.80;13.20;;;6.10;99.90;;;;;;5105533;28;20476;-76
2021/03/13 02:17:47;;;;;;;14.43;13.83;;;6.10;99.90;;;;;;5090462;28;20469;-75
2021/03/13 02:20:29;;;;;;;13.60;13.00;;;6.10;99.90;;;;;;5104069;27;20480;-76
2021/03/13 02:22:58;;;;;;;15.17;14.50;;;6.10;99.90;;;;;;5105695;27;20492;-76
2021/03/13 02:25:35;;;;;;;14.00;13.40;;;6.20;99.90;;;;;;5109415;27;20908;-77
2021/03/13 02:28:07;;;;;;;13.00;12.50;;;6.20;99.90;;;;;;5104294;27;20459;-75
2021/03/13 02:30:38;;;;;;;14.03;13.43;;;6.10;99.90;;;;;;5104572;27;20464;-75
2021/03/13 02:33:11;;;;;;;13.43;12.87;;;6.20;99.90;;;;;;5109322;27;21287;-76
2021/03/13 02:35:40;;;;;;;13.77;13.17;;;6.20;99.90;;;;;;5108434;27;20576;-76
2021/03/13 02:38:10;;;;;;;13.97;13.37;;;6.10;99.90;;;;;;5109064;27;20509;-75
2021/03/13 02:40:39;;;;;;;15.17;14.53;;;6.10;99.90;;;;;;5106356;27;20629;-77
2021/03/13 02:43:09;;;;;;;13.97;13.37;;;6.20;99.90;;;;;;5108887;27;20460;-76
2021/03/13 02:45:41;;;;;;;14.93;14.33;;;6.20;99.90;;;;;;5104015;27;20951;-76
2021/03/13 02:48:11;;;;;;;13.93;13.33;;;6.20;99.90;;;;;;5103723;27;20949;-76
2021/03/13 02:50:39;;;;;;;13.60;13.00;;;6.20;99.90;;;;;;5105308;27;20452;-77
2021/03/13 02:53:09;;;;;;;13.70;13.10;;;6.20;99.90;;;;;;5109351;27;20967;-75
2021/03/13 02:55:36;;;;;;;14.77;14.17;;;6.20;99.90;;;;;;5106590;27;20448;-76
2021/03/13 02:58:05;;;;;;;14.00;13.40;;;6.20;99.90;;;;;;5105225;27;20454;-76
2021/03/13 03:00:34;;;;;;;13.43;12.90;;;6.20;99.90;;;;;;5103958;27;20489;-78
2021/03/13 03:03:02;;;;;;;14.00;13.40;;;6.30;99.90;;;;;;5106652;27;20993;-78
2021/03/13 03:05:30;;;;;;;13.70;13.10;;;6.30;99.90;;;;;;5107749;27;20542;-77
2021/03/13 03:08:01;;;;;;;13.80;13.20;;;6.30;99.90;;;;;;5108560;27;20863;-76
2021/03/13 03:10:32;;;;;;;14.53;13.93;;;6.30;99.90;;;;;;5106870;27;20958;-76
2021/03/13 03:13:02;;;;;;;14.37;13.77;;;6.40;99.90;;;;;;5103299;27;20460;-76
2021/03/13 03:15:31;;;;;;;13.53;12.97;;;6.40;99.90;;;;;;5108101;27;20480;-77
2021/03/13 03:18:02;;;;;;;14.13;13.53;;;6.40;99.90;;;;;;5105139;27;20894;-77
2021/03/13 03:20:32;;;;;;;14.90;14.27;;;6.40;99.90;;;;;;5106884;27;20486;-77
2021/03/13 03:23:00;;;;;;;14.03;13.43;;;6.40;99.90;;;;;;5109612;27;20962;-77
2021/03/13 03:25:26;;;;;;;13.90;13.30;;;6.50;99.90;;;;;;5108995;27;20466;-75
2021/03/13 03:27:53;;;;;;;15.30;14.60;;;6.50;99.90;;;;;;5107440;27;20509;-76
2021/03/13 03:30:21;;;;;;;14.20;13.60;;;6.50;99.90;;;;;;5107111;27;20465;-75
2021/03/13 03:32:48;;;;;;;15.13;14.47;;;6.50;99.90;;;;;;5106069;27;20465;-76
2021/03/13 03:35:16;;;;;;;14.90;14.30;;;6.60;99.90;;;;;;5108956;27;20744;-76
2021/03/13 03:37:45;;;;;;;14.57;13.97;;;6.60;99.90;;;;;;5108172;27;20488;-75
2021/03/13 03:40:13;;;;;;;14.77;14.17;;;6.60;99.90;;;;;;5108211;27;20508;-74
2021/03/13 03:42:46;;;;;;;15.90;15.20;;;6.70;99.90;;;;;;5108660;27;20684;-76
2021/03/13 03:45:15;;;;;;;15.60;14.90;;;6.70;99.90;;;;;;5107919;27;20461;-75
2021/03/13 03:47:42;;;;;;;15.40;14.70;;;6.70;99.90;;;;;;5104614;27;20583;-76
2021/03/13 03:50:11;;;;;;;15.50;14.80;;;6.70;99.90;;;;;;5106254;27;20465;-75
2021/03/13 03:52:38;;;;;;;15.93;15.23;;;6.80;99.90;;;;;;5105428;27;20792;-76
2021/03/13 03:55:10;;;;;;;15.70;15.00;;;6.80;99.90;;;;;;5107061;27;20836;-75
2021/03/13 03:57:37;;;;;;;16.07;15.37;;;6.80;99.90;;;;;;5096729;27;20471;-77
2021/03/13 04:00:06;;;;;;;15.00;14.30;;;6.90;99.90;;;;;;5101423;27;20460;-75
2021/03/13 04:02:35;;;;;;;14.33;13.73;;;6.90;99.90;;;;;;5106601;27;20465;-75
2021/03/13 04:05:02;;;;;;;16.37;15.60;;;6.90;99.90;;;;;;5106467;27;20822;-75
2021/03/13 04:07:30;;;;;;;15.70;15.00;;;6.90;99.90;;;;;;5102264;27;20576;-79
2021/03/13 04:09:57;;;;;;;15.70;15.00;;;6.90;99.90;;;;;;5101788;27;20976;-78
2021/03/13 04:12:25;;;;;;;15.17;14.47;;;7.00;99.90;;;;;;5101840;27;20537;-75
2021/03/13 04:14:52;;;;;;;14.63;14.03;;;6.90;99.90;;;;;;5103222;27;21033;-75
2021/03/13 04:17:19;;;;;;;13.80;13.20;;;6.90;99.90;;;;;;5105305;27;20756;-76
2021/03/13 04:19:45;;;;;;;14.60;14.00;;;6.90;99.90;;;;;;5104349;27;20461;-75
2021/03/13 04:22:13;;;;;;;13.93;13.33;;;6.90;99.90;;;;;;5102795;27;20843;-77
2021/03/13 04:24:41;;;;;;;13.73;13.13;;;6.90;99.90;;;;;;5105902;27;20461;-77
2021/03/13 04:27:08;;;;;;;13.47;12.87;;;7.00;99.90;;;;;;5103787;27;20902;-77
2021/03/13 04:29:35;;;;;;;14.23;13.63;;;6.90;99.90;;;;;;5105006;27;20771;-75
2021/03/13 04:32:03;;;;;;;15.23;14.53;;;6.90;99.90;;;;;;5107400;27;20466;-76
2021/03/13 04:34:30;;;;;;;14.40;13.80;;;6.90;99.90;;;;;;5102004;27;20463;-77
2021/03/13 04:36:57;;;;;;;15.73;15.03;;;7.00;99.90;;;;;;5103599;27;20480;-74
2021/03/13 04:39:25;;;;;;;13.93;13.33;;;7.00;99.90;;;;;;5103103;27;20469;-75
2021/03/13 04:41:52;;;;;;;14.10;13.50;;;6.90;99.90;;;;;;5103716;27;20575;-75
2021/03/13 04:44:19;;;;;;;14.57;13.97;;;7.00;99.90;;;;;;5103645;27;20924;-76
2021/03/13 04:46:48;;;;;;;14.73;14.13;;;7.00;99.90;;;;;;5101881;27;20462;-76
2021/03/13 04:49:14;;;;;;;14.27;13.67;;;6.90;99.90;;;;;;5102134;27;20981;-76
2021/03/13 04:51:41;;;;;;;14.73;14.13;;;6.90;99.90;;;;;;5103678;27;20545;-76
2021/03/13 04:54:08;;;;;;;14.07;13.47;;;6.90;99.90;;;;;;5102929;27;20461;-76
2021/03/13 04:56:34;;;;;;;14.60;14.00;;;7.00;99.90;;;;;;5104208;27;20827;-76
2021/03/13 04:59:01;;;;;;;14.47;13.87;;;7.00;99.90;;;;;;5107620;27;20464;-77
2021/03/13 05:01:28;;;;;;;13.93;13.33;;;7.00;99.90;;;;;;5105642;27;20534;-75
2021/03/13 05:03:56;;;;;;;13.93;13.33;;;7.00;99.90;;;;;;5101327;27;20460;-74
2021/03/13 05:06:22;;;;;;;14.90;14.20;;;7.00;99.90;;;;;;5100337;27;20494;-74
2021/03/13 05:08:49;;;;;;;15.27;14.57;;;7.10;99.90;;;;;;5103478;27;20463;-75
2021/03/13 05:11:16;;;;;;;13.57;12.97;;;7.20;99.90;;;;;;5104217;27;20991;-73
2021/03/13 05:13:43;;;;;;;14.57;13.97;;;7.20;99.90;;;;;;5104220;27;20461;-74
2021/03/13 05:16:09;;;;;;;14.40;13.80;;;7.20;99.90;;;;;;5100986;27;20490;-72
2021/03/13 05:18:36;;;;;;;15.00;14.30;;;7.20;99.90;;;;;;5105840;27;20497;-74
2021/03/13 05:21:03;;;;;;;14.10;13.50;;;7.30;99.90;;;;;;5103516;27;20515;-73
2021/03/13 05:23:30;;;;;;;14.90;14.20;;;7.30;99.90;;;;;;5103124;27;20853;-73
2021/03/13 05:25:57;;;;;;;14.77;14.07;;;7.30;99.90;;;;;;5103407;27;20824;-73
2021/03/13 05:28:24;;;;;;;15.63;14.93;;;7.40;99.90;;;;;;5102054;27;20540;-72
2021/03/13 05:30:50;;;;;;;16.30;15.50;;;7.40;99.90;;;;;;5102492;27;20529;-72
2021/03/13 05:33:17;;;;;;;15.73;15.03;;;7.40;99.90;;;;;;5100487;27;20458;-73
2021/03/13 05:35:44;;;;;;;15.67;14.97;;;7.50;99.90;;;;;;5100374;27;21020;-73
2021/03/13 05:38:11;;;;;;;16.47;15.67;;;7.50;99.90;;;;;;5105724;27;20457;-73
2021/03/13 05:40:38;;;;;;;16.13;15.33;;;7.50;99.90;;;;;;5102431;27;20496;-74
2021/03/13 05:43:05;;;;;;;16.27;15.47;;;7.50;99.90;;;;;;5099675;27;20461;-74
2021/03/13 05:45:32;;;;;;;16.40;15.60;;;7.50;99.90;;;;;;5104198;27;20486;-75
2021/03/13 05:48:01;;;;;;;16.90;16.10;;;7.50;99.90;;;;;;5106009;27;20564;-74
2021/03/13 05:50:28;;;;;;;16.20;15.40;;;7.50;99.90;;;;;;5106669;27;20477;-74
2021/03/13 05:52:55;;;;;;;16.70;15.90;;;7.50;99.90;;;;;;5103414;27;20456;-74
2021/03/13 05:55:23;;;;;;;16.47;15.67;;;7.50;99.90;;;;;;5101928;28;20523;-73
2021/03/13 05:57:52;;;;;;;16.37;15.57;;;7.50;99.90;;;;;;5103189;28;20453;-74
2021/03/13 06:00:19;;;;;;;17.13;16.33;;;7.50;99.90;;;;;;5104988;27;20477;-73
2021/03/13 06:02:46;;;;;;;17.00;16.20;;;7.50;99.90;;;;;;5104253;28;20466;-73
2021/03/13 06:05:14;;;;;;;16.17;15.37;;;7.50;99.90;;;;;;5102282;28;20999;-73
2021/03/13 06:07:42;;;;;;;16.40;15.60;;;7.40;99.90;;;;;;5101139;28;20477;-73
2021/03/13 06:10:12;;;;;;;15.60;14.90;;;7.40;99.90;;;;;;5107149;28;20464;-75
2021/03/13 06:12:39;;;;;;;16.03;15.33;;;7.40;99.90;;;;;;5099740;28;20469;-76
2021/03/13 06:15:07;;;;;;;16.97;16.17;;;7.40;99.90;;;;;;5097778;28;20947;-73
2021/03/13 06:17:52;;;;;;;15.50;14.80;;;7.30;99.90;;;;;;5101952;28;20905;-74
2021/03/13 06:20:22;;;;;;;15.70;15.00;;;7.40;99.90;;;;;;5102699;28;20489;-74
2021/03/13 06:22:49;;;;;;;15.50;14.80;;;7.30;99.90;;;;;;5098845;28;20457;-75
2021/03/13 06:25:21;;;;;;;15.60;14.90;;;7.30;99.90;;;;;;5101244;28;20980;-76
2021/03/13 06:28:02;;;;;;;15.23;14.53;;;7.30;99.90;;;;;;5102021;28;20465;-77
2021/03/13 06:30:29;;;;;;;16.13;15.33;;;7.30;99.90;;;;;;5098941;28;20452;-74
2021/03/13 06:32:55;;;;;;;15.67;14.97;;;7.40;99.90;;;;;;5101137;28;20867;-73
2021/03/13 06:35:24;;;;;;;16.10;15.30;;;7.40;99.90;;;;;;5100387;28;20821;-74
2021/03/13 06:37:52;;;;;;;15.80;15.10;;;7.40;99.90;;;;;;5100496;28;20942;-74
2021/03/13 06:40:40;;;;;;;15.00;14.30;;;7.40;99.90;;;;;;5100873;28;20450;-76
2021/03/13 06:43:20;;;;;;;15.17;14.47;;;7.40;99.90;;;;;;5104743;28;20459;-76
2021/03/13 06:45:59;;;;;;;15.30;14.60;;;7.50;99.90;;;;;;5112242;28;20531;-76
2021/03/13 06:48:33;;;;;;;15.70;14.90;;;7.50;99.90;;;;;;5112231;28;20475;-75
2021/03/13 06:51:18;;;;;;;16.80;16.00;;;7.50;99.90;;;;;;5118425;28;20473;-75
2021/03/13 06:53:46;;;;;;;17.00;16.20;;;7.60;99.90;;;;;;5105102;28;20969;-77
2021/03/13 06:56:15;;;;;;;16.77;15.97;;;7.60;99.90;;;;;;5117707;28;20610;-78
2021/03/13 06:58:44;;;;;;;16.27;15.47;;;7.60;99.90;;;;;;5119075;28;20469;-77
2021/03/13 07:01:11;;;;;;;16.80;16.00;;;7.60;99.90;;;;;;5115790;28;20481;-79
2021/03/13 07:03:50;;;;;;;17.07;16.27;;;7.60;99.90;;;;;;5102290;28;20471;-76
2021/03/13 07:06:18;;;;;;;16.17;15.37;;;7.50;99.90;;;;;;5107058;27;20474;-77
2021/03/13 07:08:46;;;;;;;16.10;15.30;;;7.40;99.90;;;;;;5122109;27;20977;-79
2021/03/13 07:11:23;;;;;;;13.33;12.73;;;7.20;99.90;;;;;;5118595;27;20461;-77
2021/03/13 07:13:54;;;;;;;6.00;5.80;;;7.00;99.90;;;;;;5124770;27;20883;-81
2021/03/13 07:16:22;;;;;;;7.10;6.83;;;6.40;99.90;;;;;;5119910;27;20482;-80
2021/03/13 07:18:49;;;;;;;18.20;16.90;;;6.00;99.90;;;;;;5113453;27;20456;-79
2021/03/13 07:21:17;;;;;;;17.03;15.83;;;5.60;99.90;;;;;;5097135;27;20854;-78
2021/03/13 07:23:45;;;;;;;17.60;16.30;;;5.30;99.90;;;;;;5107661;27;20978;-80
2021/03/13 07:26:12;;;;;;;19.83;18.33;;;5.10;99.90;;;;;;5113250;27;20461;-80
2021/03/13 07:28:42;;;;;;;17.60;16.30;;;5.00;99.90;;;;;;5117025;27;20465;-79
2021/03/13 07:31:12;;;;;;;18.80;17.07;;;5.00;99.90;;;;;;5107012;27;20449;-80
2021/03/13 07:33:39;;;;;;;17.97;16.67;;;5.00;99.90;;;;;;5113743;27;20456;-81
2021/03/13 07:36:11;;;;;;;18.07;16.67;;;5.00;99.90;;;;;;5110383;27;20975;-79
2021/03/13 07:38:41;;;;;;;20.70;18.70;;;5.10;99.90;;;;;;5101020;27;21237;-82
2021/03/13 07:41:10;;;;;;;21.90;19.90;;;5.20;99.90;;;;;;5107142;27;21043;-77
2021/03/13 07:43:38;;;;;;;24.03;22.03;;;5.30;99.90;;;;;;5109925;27;20579;-80
2021/03/13 07:46:08;;;;;;;25.40;22.63;;;5.30;99.90;;;;;;5107322;27;21088;-78
2021/03/13 07:48:37;;;;;;;27.53;25.07;;;5.40;99.90;;;;;;5112599;27;20480;-79
2021/03/13 07:51:04;;;;;;;28.47;25.67;;;5.60;99.90;;;;;;5116780;27;21025;-77
2021/03/13 07:53:34;;;;;;;27.63;25.10;;;5.70;99.90;;;;;;5116939;27;20532;-78
2021/03/13 07:56:04;;;;;;;30.83;28.23;;;5.80;99.90;;;;;;5112925;27;20453;-77
2021/03/13 07:58:31;;;;;;;30.57;27.80;;;5.80;99.90;;;;;;5105978;27;20462;-75
2021/03/13 08:00:59;;;;;;;32.63;29.90;;;5.90;99.90;;;;;;5104772;27;20481;-75
2021/03/13 08:03:43;;;;;;;30.63;28.07;;;5.90;99.90;;;;;;5123744;27;20542;-77
2021/03/13 08:06:11;;;;;;;31.60;28.50;;;6.00;99.90;;;;;;5115684;27;20873;-76
2021/03/13 08:08:40;;;;;;;9.53;9.03;;;6.10;99.90;;;;;;5119469;27;20462;-75
2021/03/13 08:11:08;;;;;;;9.60;9.00;;;6.10;99.90;;;;;;5110626;27;20480;-76
2021/03/13 08:13:57;;;;;;;10.63;9.73;;;6.20;99.90;;;;;;5106287;27;20464;-74
2021/03/13 08:16:49;;;;;;;10.73;10.33;;;6.30;99.90;;;;;;5115662;27;20724;-75
2021/03/13 08:19:35;;;;;;;11.57;10.97;;;6.30;99.90;;;;;;5098089;27;20464;-74
2021/03/13 08:22:28;;;;;;;10.97;10.40;;;6.40;99.90;;;;;;5116692;27;20552;-75
2021/03/13 08:24:55;;;;;;;10.80;10.33;;;6.40;99.90;;;;;;5069821;27;20452;-75
2021/03/13 08:27:42;;;;;;;10.07;9.67;;;6.50;99.90;;;;;;5116556;27;20953;-74
2021/03/13 08:30:23;;;;;;;10.43;9.97;;;6.60;99.90;;;;;;5113197;27;20962;-74
2021/03/13 08:33:01;;;;;;;10.53;10.03;;;6.60;99.90;;;;;;5115428;27;20453;-74
2021/03/13 08:35:43;;;;;;;10.73;10.23;;;6.60;99.90;;;;;;5111938;27;20457;-74
2021/03/13 08:38:10;;;;;;;10.77;10.37;;;6.70;99.90;;;;;;5109014;27;20483;-74
2021/03/13 08:40:46;;;;;;;11.80;11.30;;;6.70;99.90;;;;;;5115696;27;20491;-74
2021/03/13 08:43:39;;;;;;;11.60;10.90;;;6.60;99.90;;;;;;5115083;27;20457;-73
2021/03/13 08:46:43;;;;;;;11.97;11.30;;;6.70;99.90;;;;;;5115236;27;20798;-73
2021/03/13 08:49:10;;;;;;;12.60;11.67;;;6.80;99.90;;;;;;5122355;27;20457;-74
2021/03/13 08:51:38;;;;;;;11.90;11.40;;;6.90;99.90;;;;;;5121123;27;20463;-74
2021/03/13 08:54:06;;;;;;;12.13;11.47;;;7.00;99.90;;;;;;5115101;27;20461;-73
2021/03/13 08:56:43;;;;;;;12.77;11.70;;;7.10;99.90;;;;;;5113986;27;20453;-71
2021/03/13 08:59:16;;;;;;;12.27;11.37;;;7.20;99.90;;;;;;5116471;27;20844;-71
2021/03/13 09:01:45;;;;;;;11.40;10.90;;;7.40;99.90;;;;;;5110688;27;20483;-72
2021/03/13 09:04:13;;;;;;;11.80;11.10;;;7.40;99.90;;;;;;5120207;27;20460;-72
2021/03/13 09:06:41;;;;;;;13.97;12.77;;;7.50;99.90;;;;;;5115009;27;20491;-72
2021/03/13 09:09:09;;;;;;;14.67;13.07;;;7.50;99.90;;;;;;5114679;27;20497;-73
2021/03/13 09:11:37;;;;;;;12.63;11.83;;;7.50;99.90;;;;;;5118720;27;20846;-72
2021/03/13 09:14:04;;;;;;;13.40;12.23;;;7.50;99.90;;;;;;5121011;27;20464;-73
2021/03/13 09:16:36;;;;;;;12.90;12.10;;;7.70;99.90;;;;;;5107587;27;20483;-72
2021/03/13 09:19:04;;;;;;;11.83;11.27;;;7.80;99.90;;;;;;5113478;27;20867;-73
2021/03/13 09:21:54;;;;;;;14.07;13.03;;;7.90;99.90;;;;;;5116815;27;20496;-73
2021/03/13 09:24:22;;;;;;;13.97;13.10;;;8.00;99.90;;;;;;5112031;27;20460;-72
2021/03/13 09:26:53;;;;;;;14.07;13.10;;;8.00;99.90;;;;;;5107376;27;20451;-72
2021/03/13 09:29:31;;;;;;;13.50;12.70;;;8.00;99.90;;;;;;5112005;27;20580;-72
2021/03/13 09:32:00;;;;;;;14.60;13.50;;;8.10;99.90;;;;;;5113202;27;20560;-72
2021/03/13 09:34:29;;;;;;;13.90;12.80;;;8.00;99.90;;;;;;5108386;27;20464;-73
2021/03/13 09:36:57;;;;;;;14.27;13.27;;;8.10;99.90;;;;;;5110427;27;20547;-73
2021/03/13 09:39:26;;;;;;;14.77;13.40;;;8.40;99.90;;;;;;5111447;27;20455;-73
2021/03/13 09:42:06;;;;;;;14.17;13.27;;;8.60;99.90;;;;;;5111819;27;20477;-73
2021/03/13 09:44:35;;;;;;;15.53;14.30;;;8.60;99.90;;;;;;5115892;27;20457;-73
2021/03/13 09:47:10;;;;;;;17.63;16.10;;;8.60;99.90;;;;;;5119419;27;21095;-73
2021/03/13 09:49:37;;;;;;;15.70;14.40;;;8.80;99.90;;;;;;5113362;27;20454;-73
2021/03/13 09:52:06;;;;;;;15.10;14.30;;;8.70;99.90;;;;;;5116107;27;20460;-73
2021/03/13 09:54:32;;;;;;;15.10;14.00;;;8.70;99.90;;;;;;5111666;27;20455;-73
2021/03/13 09:57:07;;;;;;;15.20;13.93;;;8.50;99.90;;;;;;5115611;27;20463;-73
2021/03/13 09:59:34;;;;;;;15.90;13.77;;;8.50;99.90;;;;;;5116428;27;20451;-73
2021/03/13 10:02:02;;;;;;;16.50;15.07;;;8.50;99.90;;;;;;5122753;27;20488;-73
2021/03/13 10:04:29;;;;;;;15.17;13.97;;;8.50;99.90;;;;;;5113195;28;20447;-72
2021/03/13 10:06:56;;;;;;;14.77;13.53;;;8.70;99.90;;;;;;5113870;27;20481;-72
2021/03/13 10:09:24;;;;;;;15.33;14.43;;;8.80;99.90;;;;;;5113244;28;20456;-72
2021/03/13 10:11:51;;;;;;;15.63;14.20;;;9.10;99.90;;;;;;5111763;28;20463;-72
2021/03/13 10:14:21;;;;;;;16.07;14.60;;;8.90;99.90;;;;;;5113338;28;20536;-73
2021/03/13 10:16:58;;;;;;;17.30;15.60;;;8.90;99.90;;;;;;5115114;28;20472;-73
2021/03/13 10:19:36;;;;;;;15.80;14.60;;;9.30;99.90;;;;;;5111790;28;20467;-72
2021/03/13 10:22:09;;;;;;;16.30;14.70;;;9.40;99.90;;;;;;5116451;28;20480;-73
2021/03/13 10:24:52;;;;;;;17.03;15.23;;;9.30;99.90;;;;;;5110983;28;20467;-73
2021/03/13 10:27:22;;;;;;;18.90;16.40;;;9.00;99.90;;;;;;5112199;28;20517;-72
2021/03/13 10:29:51;;;;;;;16.67;15.00;;;8.80;99.90;;;;;;5112886;28;20541;-73
2021/03/13 10:32:24;;;;;;;15.87;14.90;;;8.70;99.90;;;;;;5094814;28;20991;-73
2021/03/13 10:35:16;;;;;;;16.93;14.83;;;8.70;99.90;;;;;;5115441;28;20517;-72
2021/03/13 10:37:44;;;;;;;15.43;14.30;;;8.70;99.90;;;;;;5113763;28;20549;-73
2021/03/13 10:40:28;;;;;;;16.20;14.73;;;8.60;99.90;;;;;;5120522;27;20456;-73
2021/03/13 10:43:10;;;;;;;17.23;15.17;;;8.50;99.90;;;;;;5123746;27;20486;-73
2021/03/13 10:45:38;;;;;;;15.60;14.27;;;8.60;99.90;;;;;;5118914;27;20460;-73
2021/03/13 10:48:06;;;;;;;15.83;14.80;;;9.10;99.90;;;;;;5122877;27;20464;-72
2021/03/13 10:50:35;;;;;;;16.20;15.20;;;9.10;99.90;;;;;;5117878;27;21028;-72
2021/03/13 10:53:29;;;;;;;16.30;14.97;;;9.10;99.90;;;;;;5112790;27;20944;-73
2021/03/13 10:55:59;;;;;;;16.73;15.43;;;9.10;99.90;;;;;;5118681;27;20609;-72
2021/03/13 10:58:28;;;;;;;15.70;14.77;;;9.30;99.90;;;;;;5103734;27;20974;-72
2021/03/13 11:00:55;;;;;;;16.93;15.60;;;9.30;99.90;;;;;;5096888;28;20980;-72
2021/03/13 11:03:26;;;;;;;19.43;15.00;;;9.50;99.90;;;;;;5108758;27;20474;-72
2021/03/13 11:05:54;;;;;;;17.10;15.50;;;9.60;99.90;;;;;;5114029;27;20489;-72
2021/03/13 11:08:22;;;;;;;15.60;14.70;;;9.70;99.90;;;;;;5114889;27;20464;-72
2021/03/13 11:10:49;;;;;;;29.40;17.27;;;9.70;99.90;;;;;;5119081;27;21011;-72
2021/03/13 11:13:18;;;;;;;18.33;16.60;;;9.70;99.90;;;;;;5116090;27;20473;-72
2021/03/13 11:15:46;;;;;;;17.20;15.70;;;9.40;99.90;;;;;;5109549;27;20483;-72
2021/03/13 11:18:14;;;;;;;16.80;15.63;;;9.30;99.90;;;;;;5114637;27;20460;-72
2021/03/13 11:20:42;;;;;;;18.00;16.40;;;9.40;99.90;;;;;;5110785;27;20846;-72
2021/03/13 11:23:09;;;;;;;16.90;15.50;;;9.30;99.90;;;;;;5121639;27;20835;-72
2021/03/13 11:25:36;;;;;;;18.70;17.10;;;9.80;99.90;;;;;;5116173;27;20468;-72
2021/03/13 11:28:04;;;;;;;17.03;15.67;;;10.20;99.90;;;;;;5109097;27;20469;-72
2021/03/13 11:30:33;;;;;;;17.97;16.07;;;10.40;99.90;;;;;;5109581;27;20494;-72
2021/03/13 11:32:59;;;;;;;17.07;15.80;;;10.60;99.90;;;;;;5111626;27;20752;-72
2021/03/13 11:35:26;;;;;;;16.53;15.00;;;10.60;99.90;;;;;;5115070;27;20539;-72
2021/03/13 11:37:53;;;;;;;17.80;16.37;;;10.60;99.90;;;;;;5120919;27;20474;-72
2021/03/13 11:40:20;;;;;;;16.37;15.17;;;10.30;99.90;;;;;;5114749;27;20471;-72
2021/03/13 11:42:49;;;;;;;19.63;18.10;;;9.80;99.90;;;;;;5114083;27;20496;-72
2021/03/13 11:45:16;;;;;;;20.00;18.40;;;8.90;99.90;;;;;;5124127;27;20492;-72
2021/03/13 11:47:44;;;;;;;20.80;18.73;;;8.20;99.90;;;;;;5117162;27;20465;-72
2021/03/13 11:50:13;;;;;;;20.53;18.73;;;8.10;99.90;;;;;;5118083;27;20449;-72
2021/03/13 11:52:41;;;;;;;19.30;17.70;;;8.30;99.90;;;;;;5117259;27;20458;-72
2021/03/13 11:55:10;;;;;;;19.17;17.43;;;8.40;99.90;;;;;;5111299;27;20480;-72
2021/03/13 11:57:38;;;;;;;18.50;16.97;;;8.70;99.90;;;;;;5112315;27;20459;-73
2021/03/13 12:00:07;;;;;;;17.00;16.00;;;8.90;99.90;;;;;;5117461;27;20462;-73
2021/03/13 12:02:34;;;;;;;17.23;15.50;;;8.90;99.90;;;;;;5120824;27;20479;-73
2021/03/13 12:05:01;;;;;;;16.77;15.10;;;8.90;99.90;;;;;;5123691;27;20504;-72
2021/03/13 12:07:28;;;;;;;16.33;15.07;;;9.00;99.90;;;;;;5112068;27;20468;-72
2021/03/13 12:09:55;;;;;;;15.53;13.80;;;8.80;99.90;;;;;;5111150;27;20459;-73
2021/03/13 12:12:22;;;;;;;16.77;15.20;;;8.60;99.90;;;;;;5123913;27;20868;-72
2021/03/13 12:14:48;;;;;;;16.60;15.30;;;8.50;99.90;;;;;;5122600;27;20460;-72
2021/03/13 12:17:15;;;;;;;26.00;24.13;;;8.30;99.90;;;;;;5115795;27;20954;-76
2021/03/13 12:19:44;;;;;;;23.20;21.70;;;7.80;99.90;;;;;;5116583;27;20502;-79
2021/03/13 12:22:11;;;;;;;24.90;22.70;;;7.00;99.90;;;;;;5119247;27;20495;-76
2021/03/13 12:24:40;;;;;;;23.57;21.50;;;6.90;99.90;;;;;;5109083;27;20465;-75
2021/03/13 12:27:10;;;;;;;21.70;19.73;;;6.90;99.90;;;;;;5113519;27;20453;-75
2021/03/13 12:29:36;;;;;;;20.40;18.80;;;6.80;99.90;;;;;;5110099;27;20461;-74
2021/03/13 12:32:05;;;;;;;20.40;18.20;;;6.70;99.90;;;;;;5111324;27;20467;-74
2021/03/13 12:34:31;;;;;;;24.93;18.60;;;6.70;99.90;;;;;;5111660;27;20463;-74
2021/03/13 12:36:59;;;;;;;18.50;16.77;;;6.60;99.90;;;;;;5118049;27;20945;-73
2021/03/13 12:39:28;;;;;;;17.70;16.10;;;6.70;99.90;;;;;;5115085;27;20461;-74
2021/03/13 12:41:55;;;;;;;17.23;15.87;;;7.30;99.90;;;;;;5117272;27;20477;-74
2021/03/13 12:44:21;;;;;;;18.40;16.70;;;7.80;99.90;;;;;;5121826;27;20464;-73
2021/03/13 12:46:48;;;;;;;23.70;18.30;;;8.40;99.90;;;;;;5114706;27;20461;-73
2021/03/13 12:49:14;;;;;;;19.93;18.00;;;9.00;99.90;;;;;;5111139;27;20467;-73
2021/03/13 12:51:42;;;;;;;19.27;17.40;;;8.90;99.90;;;;;;5117219;27;20468;-72
2021/03/13 12:54:09;;;;;;;18.93;17.20;;;8.60;99.90;;;;;;5108220;27;20578;-73